createdAt,value
2019-05-26T00:02:20.535Z,11.50
2019-05-26T00:04:49.092Z,11.50
2019-05-26T00:07:30.212Z,11.50
2019-05-26T00:09:47.947Z,11.40
2019-05-26T00:12:16.531Z,11.30
2019-05-26T00:14:45.091Z,11.30
2019-05-26T00:17:13.733Z,11.30
2019-05-26T00:19:42.229Z,11.20
2019-05-26T00:22:10.795Z,11.20
2019-05-26T00:24:39.356Z,11.10
2019-05-26T00:27:08.167Z,11.10
2019-05-26T00:29:36.723Z,11.00
2019-05-26T00:32:05.532Z,10.90
2019-05-26T00:34:34.117Z,10.90
2019-05-26T00:37:02.775Z,10.80
2019-05-26T00:39:31.370Z,10.90
2019-05-26T00:41:59.923Z,10.90
2019-05-26T00:44:28.474Z,10.80
2019-05-26T00:46:57.229Z,10.80
2019-05-26T00:49:25.909Z,10.90
2019-05-26T00:51:54.401Z,10.70
2019-05-26T00:54:23.226Z,10.70
2019-05-26T00:56:52.309Z,10.70
2019-05-26T00:59:20.990Z,10.70
2019-05-26T01:01:49.534Z,10.80
2019-05-26T01:04:18.106Z,10.80
2019-05-26T01:06:46.675Z,10.70
2019-05-26T01:09:15.320Z,10.80
2019-05-26T01:11:43.852Z,10.70
2019-05-26T01:14:12.438Z,10.60
2019-05-26T01:16:40.989Z,10.60
2019-05-26T01:19:09.561Z,10.50
2019-05-26T01:21:38.059Z,10.50
2019-05-26T01:24:06.722Z,10.50
2019-05-26T01:26:35.291Z,10.60
2019-05-26T01:29:04.190Z,10.50
2019-05-26T01:31:32.751Z,10.50
2019-05-26T01:34:01.408Z,10.40
2019-05-26T01:36:30.150Z,10.40
2019-05-26T01:38:59.246Z,10.40
2019-05-26T01:41:27.802Z,10.40
2019-05-26T01:43:56.413Z,10.40
2019-05-26T01:46:24.978Z,10.30
2019-05-26T01:48:53.555Z,10.30
2019-05-26T01:51:22.192Z,10.30
2019-05-26T01:53:50.779Z,10.30
2019-05-26T01:56:19.337Z,10.40
2019-05-26T01:58:47.842Z,10.30
2019-05-26T02:01:16.413Z,10.30
2019-05-26T02:03:45.010Z,10.40
2019-05-26T02:06:13.579Z,10.30
2019-05-26T02:08:42.144Z,10.30
2019-05-26T02:11:10.728Z,10.20
2019-05-26T02:13:39.281Z,10.20
2019-05-26T02:16:07.798Z,10.20
2019-05-26T02:18:36.531Z,10.10
2019-05-26T02:21:05.145Z,10.10
2019-05-26T02:23:33.704Z,10.10
2019-05-26T02:26:02.260Z,10.10
2019-05-26T02:28:30.794Z,10.00
2019-05-26T02:30:59.364Z,10.10
2019-05-26T02:33:27.925Z,10.20
2019-05-26T02:35:56.499Z,10.20
2019-05-26T02:38:26.503Z,10.10
2019-05-26T02:40:55.341Z,10.00
2019-05-26T02:43:23.923Z,9.90
2019-05-26T02:45:52.473Z,9.90
2019-05-26T02:48:21.055Z,9.90
2019-05-26T02:50:49.779Z,9.90
2019-05-26T02:53:18.330Z,9.80
2019-05-26T02:55:47.011Z,9.90
2019-05-26T02:58:15.574Z,9.80
2019-05-26T03:00:45.801Z,9.90
2019-05-26T03:03:15.924Z,9.90
2019-05-26T03:05:45.738Z,9.90
2019-05-26T03:08:16.119Z,9.70
2019-05-26T03:10:45.249Z,9.90
2019-05-26T03:13:15.236Z,9.80
2019-05-26T03:15:45.847Z,9.80
2019-05-26T03:18:14.973Z,9.70
2019-05-26T03:20:43.713Z,9.70
2019-05-26T03:23:12.411Z,9.80
2019-05-26T03:25:41.731Z,9.80
2019-05-26T03:28:10.298Z,9.80
2019-05-26T03:30:38.977Z,9.80
2019-05-26T03:33:07.582Z,9.90
2019-05-26T03:35:36.214Z,9.80
2019-05-26T03:38:05.086Z,9.90
2019-05-26T03:40:33.795Z,9.80
2019-05-26T03:43:02.300Z,10.00
2019-05-26T03:45:42.493Z,10.00
2019-05-26T03:48:11.124Z,10.10
2019-05-26T03:50:39.690Z,10.10
2019-05-26T03:53:08.184Z,10.30
2019-05-26T03:55:36.781Z,10.50
2019-05-26T03:58:05.543Z,10.60
2019-05-26T04:00:34.121Z,10.80
2019-05-26T04:03:02.696Z,11.00
2019-05-26T04:05:31.278Z,11.40
2019-05-26T04:08:04.559Z,12.00
2019-05-26T04:10:30.063Z,12.40
2019-05-26T04:12:58.667Z,12.20
2019-05-26T04:15:27.332Z,12.50
2019-05-26T04:17:55.899Z,12.10
2019-05-26T04:20:24.489Z,12.20
2019-05-26T04:22:53.097Z,12.60
2019-05-26T04:25:21.672Z,12.90
2019-05-26T04:27:50.295Z,12.70
2019-05-26T04:30:18.817Z,12.90
2019-05-26T04:32:47.403Z,13.80
2019-05-26T04:35:16.070Z,14.10
2019-05-26T04:37:44.630Z,13.90
2019-05-26T04:40:26.405Z,14.60
2019-05-26T04:42:43.440Z,14.60
2019-05-26T04:45:12.236Z,14.70
2019-05-26T04:47:40.826Z,15.00
2019-05-26T04:50:09.645Z,14.70
2019-05-26T04:52:38.225Z,14.50
2019-05-26T04:55:07.546Z,14.10
2019-05-26T04:57:36.138Z,14.50
2019-05-26T05:00:09.003Z,15.10
2019-05-26T05:02:37.614Z,14.90
2019-05-26T05:05:07.110Z,15.70
2019-05-26T05:07:35.780Z,16.10
2019-05-26T05:10:05.689Z,15.60
2019-05-26T05:12:34.272Z,16.30
2019-05-26T05:15:03.707Z,16.10
2019-05-26T05:17:32.293Z,16.30
2019-05-26T05:20:00.884Z,16.00
2019-05-26T05:22:29.435Z,16.10
2019-05-26T05:24:57.999Z,16.50
2019-05-26T05:27:26.590Z,16.30
2019-05-26T05:29:55.168Z,16.40
2019-05-26T05:32:23.729Z,16.40
2019-05-26T05:34:52.371Z,16.10
2019-05-26T05:37:24.547Z,16.10
2019-05-26T05:39:51.260Z,16.60
2019-05-26T05:42:19.837Z,16.80
2019-05-26T05:44:48.425Z,16.80
2019-05-26T05:47:18.111Z,16.60
2019-05-26T05:49:46.674Z,17.20
2019-05-26T05:52:15.246Z,17.30
2019-05-26T05:54:43.736Z,17.80
2019-05-26T05:57:12.323Z,17.90
2019-05-26T05:59:40.895Z,18.60
2019-05-26T06:02:09.487Z,17.80
2019-05-26T06:04:38.061Z,17.70
2019-05-26T06:07:06.653Z,18.00
2019-05-26T06:09:35.210Z,18.60
2019-05-26T06:12:03.878Z,19.40
2019-05-26T06:14:32.452Z,18.80
2019-05-26T06:17:01.026Z,19.00
2019-05-26T06:19:29.618Z,18.70
2019-05-26T06:21:58.192Z,18.50
2019-05-26T06:24:26.787Z,18.30
2019-05-26T06:26:55.380Z,20.10
2019-05-26T06:29:23.966Z,19.70
2019-05-26T06:31:52.711Z,20.40
2019-05-26T06:34:21.408Z,19.90
2019-05-26T06:36:49.918Z,20.90
2019-05-26T06:39:18.518Z,20.20
2019-05-26T06:41:47.102Z,20.60
2019-05-26T06:44:15.678Z,21.40
2019-05-26T06:46:44.237Z,21.20
2019-05-26T06:49:12.812Z,22.50
2019-05-26T06:51:41.374Z,22.00
2019-05-26T06:54:09.890Z,22.70
2019-05-26T06:56:38.512Z,22.70
2019-05-26T06:59:07.169Z,23.40
2019-05-26T07:01:35.726Z,23.30
2019-05-26T07:04:04.466Z,22.70
2019-05-26T07:06:33.065Z,21.30
2019-05-26T07:09:01.693Z,21.60
2019-05-26T07:11:30.259Z,22.00
2019-05-26T07:13:58.937Z,22.20
2019-05-26T07:16:37.480Z,22.20
2019-05-26T07:18:57.833Z,22.60
2019-05-26T07:21:26.414Z,22.50
2019-05-26T07:23:55.010Z,22.30
2019-05-26T07:26:23.653Z,22.90
2019-05-26T07:28:52.258Z,23.00
2019-05-26T07:31:20.846Z,22.90
2019-05-26T07:33:49.443Z,22.80
2019-05-26T07:36:18.077Z,23.10
2019-05-26T07:38:46.620Z,25.40
2019-05-26T07:41:15.214Z,25.00
2019-05-26T07:43:43.799Z,24.90
2019-05-26T07:46:12.390Z,23.80
2019-05-26T07:48:41.071Z,24.20
2019-05-26T07:51:09.731Z,25.00
2019-05-26T07:53:38.315Z,25.80
2019-05-26T07:56:06.897Z,25.10
2019-05-26T07:58:35.487Z,25.40
2019-05-26T08:01:04.211Z,24.60
2019-05-26T08:03:32.793Z,23.90
2019-05-26T08:06:01.371Z,24.10
2019-05-26T08:08:29.973Z,25.30
2019-05-26T08:10:58.597Z,24.90
2019-05-26T08:13:27.189Z,26.00
2019-05-26T08:15:55.802Z,25.90
2019-05-26T08:18:24.356Z,26.30
2019-05-26T08:20:52.965Z,26.70
2019-05-26T08:23:21.553Z,26.00
2019-05-26T08:25:50.178Z,25.30
2019-05-26T08:28:18.729Z,26.10
2019-05-26T08:30:47.372Z,26.40
2019-05-26T08:33:15.962Z,26.60
2019-05-26T08:35:44.583Z,27.60
2019-05-26T08:38:17.019Z,27.20
2019-05-26T08:40:45.648Z,25.40
2019-05-26T08:43:15.855Z,27.70
2019-05-26T08:45:44.464Z,28.00
2019-05-26T08:48:13.039Z,27.30
2019-05-26T08:50:41.877Z,26.20
2019-05-26T08:53:10.476Z,25.80
2019-05-26T08:55:39.079Z,27.30
2019-05-26T08:58:07.675Z,26.90
2019-05-26T09:00:36.243Z,27.30
2019-05-26T09:03:04.991Z,26.60
2019-05-26T09:05:33.621Z,26.50
2019-05-26T09:08:02.244Z,26.30
2019-05-26T09:10:30.850Z,26.90
2019-05-26T09:13:01.128Z,27.70
2019-05-26T09:15:29.785Z,27.20
2019-05-26T09:17:58.456Z,27.20
2019-05-26T09:20:27.161Z,26.00
2019-05-26T09:22:59.005Z,26.10
2019-05-26T09:25:27.730Z,26.70
2019-05-26T09:27:59.682Z,27.80
2019-05-26T09:30:28.209Z,28.10
2019-05-26T09:32:56.948Z,29.50
2019-05-26T09:35:25.599Z,29.90
2019-05-26T09:37:56.338Z,29.10
2019-05-26T09:40:24.902Z,29.30
2019-05-26T09:42:54.709Z,29.80
2019-05-26T09:45:23.327Z,29.40
2019-05-26T09:47:53.583Z,29.60
2019-05-26T09:50:22.403Z,28.90
2019-05-26T09:52:51.185Z,28.90
2019-05-26T09:55:21.851Z,28.00
2019-05-26T09:57:52.452Z,27.60
2019-05-26T10:00:21.851Z,26.40
2019-05-26T10:02:50.467Z,27.80
2019-05-26T10:05:19.121Z,28.80
2019-05-26T10:07:47.743Z,28.20
2019-05-26T10:10:19.169Z,27.00
2019-05-26T10:12:50.758Z,29.50
2019-05-26T10:15:21.091Z,30.60
2019-05-26T10:17:49.963Z,29.90
2019-05-26T10:20:20.152Z,29.00
2019-05-26T10:22:50.367Z,28.70
2019-05-26T10:25:19.167Z,28.20
2019-05-26T10:27:50.376Z,27.50
2019-05-26T10:30:19.605Z,27.30
2019-05-26T10:32:49.766Z,26.50
2019-05-26T10:35:18.426Z,27.50
2019-05-26T10:37:47.342Z,27.60
2019-05-26T10:40:17.642Z,26.70
2019-05-26T10:42:46.314Z,26.80
2019-05-26T10:45:15.441Z,26.30
2019-05-26T10:47:44.281Z,26.00
2019-05-26T10:50:13.404Z,27.40
2019-05-26T10:52:42.009Z,28.30
2019-05-26T10:55:11.055Z,28.90
2019-05-26T10:57:40.004Z,27.40
2019-05-26T11:00:09.812Z,26.30
2019-05-26T11:02:38.529Z,26.10
2019-05-26T11:05:08.338Z,26.90
2019-05-26T11:07:37.068Z,28.50
2019-05-26T11:10:08.964Z,27.60
2019-05-26T11:12:39.388Z,26.90
2019-05-26T11:15:09.231Z,25.30
2019-05-26T11:17:37.810Z,25.60
2019-05-26T11:20:09.417Z,25.70
2019-05-26T11:22:39.625Z,25.90
2019-05-26T11:25:09.032Z,25.10
2019-05-26T11:27:37.601Z,26.30
2019-05-26T11:30:10.441Z,26.90
2019-05-26T11:32:39.078Z,26.90
2019-05-26T11:35:08.602Z,27.80
2019-05-26T11:37:37.166Z,27.50
2019-05-26T11:40:06.996Z,27.00
2019-05-26T11:42:35.650Z,26.30
2019-05-26T11:45:07.318Z,27.40
2019-05-26T11:47:35.923Z,27.30
2019-05-26T11:50:09.127Z,26.70
2019-05-26T11:52:37.716Z,27.80
2019-05-26T11:55:07.447Z,28.10
2019-05-26T11:57:37.116Z,27.50
2019-05-26T12:00:11.648Z,27.80
2019-05-26T12:02:40.317Z,28.10
2019-05-26T12:05:09.638Z,27.00
2019-05-26T12:07:38.202Z,27.20
2019-05-26T12:10:13.869Z,27.70
2019-05-26T12:12:40.484Z,27.20
2019-05-26T12:15:10.720Z,28.20
2019-05-26T12:17:39.270Z,28.10
2019-05-26T12:20:10.558Z,27.40
2019-05-26T12:22:39.096Z,26.90
2019-05-26T12:25:08.823Z,27.00
2019-05-26T12:27:37.400Z,27.30
2019-05-26T12:30:07.993Z,27.90
2019-05-26T12:32:36.713Z,27.90
2019-05-26T12:35:08.480Z,27.40
2019-05-26T12:37:37.032Z,26.50
2019-05-26T12:40:07.356Z,26.60
2019-05-26T12:42:35.986Z,27.50
2019-05-26T12:45:06.592Z,28.20
2019-05-26T12:47:35.189Z,28.00
2019-05-26T12:50:05.754Z,27.60
2019-05-26T12:52:35.184Z,26.90
2019-05-26T12:55:08.480Z,26.50
2019-05-26T12:57:34.969Z,26.60
2019-05-26T13:00:06.083Z,27.10
2019-05-26T13:02:34.779Z,27.30
2019-05-26T13:05:04.149Z,27.30
2019-05-26T13:07:32.735Z,28.00
2019-05-26T13:10:01.287Z,27.20
2019-05-26T13:12:29.870Z,26.30
2019-05-26T13:15:05.947Z,27.40
2019-05-26T13:17:28.677Z,27.40
2019-05-26T13:19:57.333Z,27.90
2019-05-26T13:22:25.927Z,26.60
2019-05-26T13:24:54.512Z,25.60
2019-05-26T13:27:23.150Z,27.00
2019-05-26T13:29:53.235Z,26.60
2019-05-26T13:32:21.819Z,26.70
2019-05-26T13:34:50.395Z,27.20
2019-05-26T13:37:19.086Z,27.10
2019-05-26T13:39:47.643Z,26.60
2019-05-26T13:42:16.247Z,27.20
2019-05-26T13:44:44.825Z,26.80
2019-05-26T13:47:25.351Z,26.80
2019-05-26T13:49:43.649Z,26.90
2019-05-26T13:52:12.249Z,27.10
2019-05-26T13:54:40.835Z,26.60
2019-05-26T13:57:09.443Z,26.00
2019-05-26T13:59:37.996Z,25.80
2019-05-26T14:02:06.674Z,26.40
2019-05-26T14:04:35.234Z,26.10
2019-05-26T14:07:03.822Z,25.40
2019-05-26T14:09:32.387Z,24.80
2019-05-26T14:12:01.051Z,25.30
2019-05-26T14:14:29.677Z,25.70
2019-05-26T14:16:59.785Z,26.00
2019-05-26T14:19:29.376Z,26.10
2019-05-26T14:21:57.959Z,25.50
2019-05-26T14:24:26.517Z,25.80
2019-05-26T14:26:55.087Z,26.10
2019-05-26T14:29:23.708Z,26.20
2019-05-26T14:31:52.962Z,26.20
2019-05-26T14:34:21.615Z,26.30
2019-05-26T14:36:50.208Z,26.20
2019-05-26T14:39:18.774Z,25.90
2019-05-26T14:41:47.378Z,25.90
2019-05-26T14:44:15.935Z,25.30
2019-05-26T14:46:44.490Z,25.70
2019-05-26T14:49:13.066Z,25.80
2019-05-26T14:51:41.670Z,25.80
2019-05-26T14:54:10.250Z,25.90
2019-05-26T14:56:38.801Z,25.60
2019-05-26T14:59:07.399Z,25.40
2019-05-26T15:01:35.941Z,25.50
2019-05-26T15:04:04.541Z,25.50
2019-05-26T15:06:33.122Z,25.60
2019-05-26T15:09:01.710Z,25.50
2019-05-26T15:11:30.295Z,25.20
2019-05-26T15:13:58.876Z,25.10
2019-05-26T15:16:27.458Z,25.30
2019-05-26T15:18:56.054Z,25.30
2019-05-26T15:21:24.642Z,25.20
2019-05-26T15:23:53.262Z,25.10
2019-05-26T15:26:21.845Z,25.30
2019-05-26T15:28:50.500Z,25.20
2019-05-26T15:31:19.093Z,25.10
2019-05-26T15:33:47.674Z,24.80
2019-05-26T15:36:16.298Z,24.90
2019-05-26T15:38:44.930Z,24.80
2019-05-26T15:41:13.561Z,24.60
2019-05-26T15:43:42.128Z,24.60
2019-05-26T15:46:24.101Z,24.60
2019-05-26T15:48:40.839Z,24.50
2019-05-26T15:51:09.383Z,24.60
2019-05-26T15:53:37.976Z,24.80
2019-05-26T15:56:06.539Z,24.60
2019-05-26T15:58:35.122Z,24.60
2019-05-26T16:01:03.674Z,24.70
2019-05-26T16:03:32.222Z,24.60
2019-05-26T16:06:00.812Z,24.50
2019-05-26T16:08:29.352Z,24.60
2019-05-26T16:10:57.935Z,24.30
2019-05-26T16:13:26.496Z,24.20
2019-05-26T16:15:55.091Z,24.30
2019-05-26T16:18:23.642Z,24.20
2019-05-26T16:21:02.618Z,24.20
2019-05-26T16:23:22.509Z,24.30
2019-05-26T16:25:51.130Z,24.20
2019-05-26T16:28:19.696Z,24.30
2019-05-26T16:30:48.263Z,24.10
2019-05-26T16:33:16.872Z,24.30
2019-05-26T16:35:45.411Z,24.20
2019-05-26T16:38:13.985Z,24.20
2019-05-26T16:40:42.574Z,24.00
2019-05-26T16:43:11.166Z,23.90
2019-05-26T16:45:53.522Z,23.70
2019-05-26T16:48:09.963Z,23.90
2019-05-26T16:50:38.504Z,24.00
2019-05-26T16:53:07.050Z,23.80
2019-05-26T16:55:35.666Z,23.70
2019-05-26T16:58:06.616Z,23.60
2019-05-26T17:00:34.681Z,23.30
2019-05-26T17:03:03.242Z,23.20
2019-05-26T17:05:31.831Z,23.20
2019-05-26T17:08:00.379Z,23.30
2019-05-26T17:10:28.981Z,23.30
2019-05-26T17:12:57.607Z,23.30
2019-05-26T17:15:26.173Z,23.20
2019-05-26T17:17:54.748Z,23.30
2019-05-26T17:20:23.739Z,23.10
2019-05-26T17:22:52.297Z,23.00
2019-05-26T17:25:20.964Z,22.90
2019-05-26T17:27:49.511Z,22.90
2019-05-26T17:30:21.964Z,22.90
2019-05-26T17:32:49.221Z,23.00
2019-05-26T17:35:17.954Z,22.90
2019-05-26T17:37:46.605Z,22.80
2019-05-26T17:40:16.304Z,22.80
2019-05-26T17:42:44.879Z,22.70
2019-05-26T17:45:14.063Z,22.60
2019-05-26T17:47:42.630Z,22.70
2019-05-26T17:50:11.412Z,22.60
2019-05-26T17:52:39.975Z,22.60
2019-05-26T17:55:09.222Z,22.60
2019-05-26T17:57:37.842Z,22.60
2019-05-26T18:00:10.964Z,22.50
2019-05-26T18:02:39.513Z,22.40
2019-05-26T18:05:08.453Z,22.30
2019-05-26T18:07:37.134Z,22.30
2019-05-26T18:10:06.549Z,22.20
2019-05-26T18:12:35.141Z,22.10
2019-05-26T18:15:05.673Z,22.00
2019-05-26T18:17:46.501Z,22.00
2019-05-26T18:20:06.360Z,22.00
2019-05-26T18:22:35.062Z,21.90
2019-05-26T18:25:04.165Z,21.80
2019-05-26T18:27:32.812Z,21.80
2019-05-26T18:30:01.403Z,21.60
2019-05-26T18:32:29.979Z,21.60
2019-05-26T18:34:58.531Z,21.50
2019-05-26T18:37:27.258Z,21.40
2019-05-26T18:39:55.830Z,21.30
2019-05-26T18:42:24.447Z,21.20
2019-05-26T18:44:53.003Z,21.00
2019-05-26T18:47:21.571Z,20.90
2019-05-26T18:49:50.134Z,20.90
2019-05-26T18:52:18.709Z,20.80
2019-05-26T18:54:47.270Z,20.70
2019-05-26T18:57:15.950Z,20.60
2019-05-26T18:59:44.512Z,20.70
2019-05-26T19:02:13.219Z,20.60
2019-05-26T19:04:41.794Z,20.50
2019-05-26T19:07:10.444Z,20.50
2019-05-26T19:09:39.071Z,20.40
2019-05-26T19:12:07.824Z,20.30
2019-05-26T19:14:36.391Z,20.20
2019-05-26T19:17:05.132Z,20.20
2019-05-26T19:19:34.331Z,20.20
2019-05-26T19:22:02.937Z,20.10
2019-05-26T19:24:31.504Z,20.00
2019-05-26T19:27:00.158Z,20.00
2019-05-26T19:29:28.742Z,19.90
2019-05-26T19:31:57.319Z,19.90
2019-05-26T19:34:25.898Z,19.80
2019-05-26T19:36:54.500Z,19.60
2019-05-26T19:39:23.064Z,19.50
2019-05-26T19:41:51.633Z,19.50
2019-05-26T19:44:20.217Z,19.50
2019-05-26T19:46:52.673Z,19.40
2019-05-26T19:49:19.114Z,19.30
2019-05-26T19:51:47.972Z,19.30
2019-05-26T19:54:16.624Z,19.30
2019-05-26T19:56:45.170Z,19.20
2019-05-26T19:59:13.754Z,19.10
2019-05-26T20:01:42.337Z,19.10
2019-05-26T20:04:10.919Z,19.10
2019-05-26T20:06:39.476Z,19.10
2019-05-26T20:09:09.035Z,19.10
2019-05-26T20:11:37.605Z,19.00
2019-05-26T20:14:06.324Z,19.00
2019-05-26T20:16:34.972Z,19.10
2019-05-26T20:19:03.660Z,19.00
2019-05-26T20:21:32.227Z,19.00
2019-05-26T20:24:00.858Z,19.00
2019-05-26T20:26:29.502Z,18.90
2019-05-26T20:28:58.184Z,18.90
2019-05-26T20:31:26.832Z,18.80
2019-05-26T20:33:55.413Z,18.80
2019-05-26T20:36:23.982Z,18.70
2019-05-26T20:38:52.562Z,18.70
2019-05-26T20:41:21.136Z,18.70
2019-05-26T20:43:49.778Z,18.60
2019-05-26T20:46:18.331Z,18.50
2019-05-26T20:48:47.031Z,18.50
2019-05-26T20:51:15.608Z,18.50
2019-05-26T20:53:44.176Z,18.40
2019-05-26T20:56:12.755Z,18.40
2019-05-26T20:58:41.362Z,18.30
2019-05-26T21:01:09.971Z,18.30
2019-05-26T21:03:38.546Z,18.20
2019-05-26T21:06:07.091Z,18.10
2019-05-26T21:08:35.596Z,18.00
2019-05-26T21:11:04.298Z,17.90
2019-05-26T21:13:32.867Z,17.90
2019-05-26T21:16:01.422Z,17.80
2019-05-26T21:18:30.007Z,17.80
2019-05-26T21:20:58.594Z,17.70
2019-05-26T21:23:27.144Z,17.70
2019-05-26T21:25:55.710Z,17.70
2019-05-26T21:28:24.275Z,17.60
2019-05-26T21:30:52.862Z,17.50
2019-05-26T21:33:21.407Z,17.50
2019-05-26T21:35:49.980Z,17.50
2019-05-26T21:38:18.532Z,17.40
2019-05-26T21:40:47.137Z,17.40
2019-05-26T21:43:15.685Z,17.30
2019-05-26T21:45:44.437Z,17.30
2019-05-26T21:48:12.989Z,17.20
2019-05-26T21:50:41.566Z,17.00
2019-05-26T21:53:10.119Z,17.00
2019-05-26T21:55:38.694Z,17.10
2019-05-26T21:58:07.386Z,17.00
2019-05-26T22:00:37.689Z,17.00
2019-05-26T22:03:06.531Z,16.90
2019-05-26T22:05:35.090Z,16.80
2019-05-26T22:08:03.637Z,16.80
2019-05-26T22:10:32.210Z,16.80
2019-05-26T22:13:00.787Z,16.70
2019-05-26T22:15:29.431Z,16.60
2019-05-26T22:17:58.021Z,16.60
2019-05-26T22:20:26.658Z,16.50
2019-05-26T22:22:55.227Z,16.50
2019-05-26T22:25:23.805Z,16.40
2019-05-26T22:27:52.555Z,16.40
2019-05-26T22:30:21.457Z,16.40
2019-05-26T22:32:50.027Z,16.30
2019-05-26T22:35:18.607Z,16.20
2019-05-26T22:37:47.174Z,16.20
2019-05-26T22:40:16.108Z,16.20
2019-05-26T22:42:44.664Z,16.10
2019-05-26T22:45:13.481Z,16.10
2019-05-26T22:47:42.043Z,16.10
2019-05-26T22:50:11.125Z,16.00
2019-05-26T22:52:39.609Z,16.00
2019-05-26T22:55:09.614Z,16.00
2019-05-26T22:57:38.319Z,16.00
2019-05-26T23:00:09.227Z,16.00
2019-05-26T23:02:37.874Z,15.90
2019-05-26T23:05:07.957Z,15.90
2019-05-26T23:07:36.543Z,15.90
2019-05-26T23:10:08.391Z,15.80
2019-05-26T23:12:37.148Z,15.80
2019-05-26T23:15:08.550Z,15.90
2019-05-26T23:17:37.136Z,15.90
2019-05-26T23:20:06.614Z,15.80
2019-05-26T23:22:35.193Z,15.80
2019-05-26T23:25:04.305Z,15.80
2019-05-26T23:27:32.812Z,15.70
2019-05-26T23:30:01.375Z,15.70
2019-05-26T23:32:29.950Z,15.70
2019-05-26T23:34:58.494Z,15.60
2019-05-26T23:37:27.077Z,15.60
2019-05-26T23:39:55.622Z,15.60
2019-05-26T23:42:24.180Z,15.70
2019-05-26T23:44:52.776Z,15.60
2019-05-26T23:47:21.312Z,15.70
2019-05-26T23:49:49.884Z,15.60
2019-05-26T23:52:19.506Z,15.60
2019-05-26T23:54:48.194Z,15.60
2019-05-26T23:57:16.781Z,15.60
2019-05-26T23:59:45.358Z,15.50
